Time;durP1;ratioP1;P1;durP2;ratioP2;P2;SDS_P1;SDS_P2;PMS_P1;PMS_P2;Temp;Humidity;BMP_temperature;BMP_pressure;BME280_temperature;BME280_humidity;BME280_pressure;Samples;Min_cycle;Max_cycle;Signal;HPM_P1;HPM_P2
2021/07/15 00:09:14;;;;;;;3.50;0.50;;;;;;;15.81;90.24;99899.56;21244429;27;20064;-70
2021/07/15 00:19:18;;;;;;;0.60;0.15;;;;;;;15.82;89.91;99901.28;21244421;27;20108;-70
2021/07/15 00:29:22;;;;;;;3.75;0.88;;;;;;;15.78;90.09;99894.44;21244118;27;20055;-70
2021/07/15 00:39:24;;;;;;;1.67;0.38;;;;;;;15.64;89.71;99882.69;21241274;27;20100;-70
2021/07/15 00:49:25;;;;;;;1.73;0.30;;;;;;;15.71;90.18;99877.13;21242397;27;20047;-70
2021/07/15 00:59:27;;;;;;;0.20;0.15;;;;;;;15.71;90.27;99870.06;21239983;27;20054;-70
2021/07/15 01:09:31;;;;;;;3.30;0.20;;;;;;;15.62;89.28;99863.41;21237638;27;20541;-70
2021/07/15 01:20:01;;;;;;;1.52;0.47;;;;;;;15.63;89.36;99857.25;21237912;27;20054;-70
2021/07/15 01:30:15;;;;;;;2.08;0.50;;;;;;;15.61;89.04;99861.69;21238110;27;20104;-70
2021/07/15 01:40:21;;;;;;;0.90;0.50;;;;;;;15.60;89.35;99891.66;21237963;27;20378;-70
2021/07/15 01:50:23;;;;;;;2.45;0.65;;;;;;;15.69;88.82;99885.13;21237337;27;20050;-70
2021/07/15 02:00:25;;;;;;;1.52;0.50;;;;;;;15.62;88.92;99889.81;21236034;27;20046;-70
2021/07/15 02:10:28;;;;;;;1.00;0.35;;;;;;;15.60;88.96;99901.34;21217997;27;20047;-71
2021/07/15 02:20:31;;;;;;;1.70;0.60;;;;;;;15.58;89.34;99890.88;21236776;28;20389;-70
2021/07/15 02:30:34;;;;;;;2.78;0.65;;;;;;;15.60;88.89;99896.06;21235549;28;20390;-70
2021/07/15 02:40:35;;;;;;;1.63;0.60;;;;;;;15.57;89.81;99902.34;21243531;27;20043;-72
2021/07/15 02:50:38;;;;;;;2.03;0.70;;;;;;;15.61;89.72;99896.00;21250094;27;20103;-70
2021/07/15 03:00:45;;;;;;;1.10;0.52;;;;;;;15.58;89.17;99897.94;21250457;27;20073;-71
2021/07/15 03:10:48;;;;;;;2.10;0.70;;;;;;;15.58;89.62;99895.28;21250112;27;20096;-70
2021/07/15 03:20:51;;;;;;;2.15;0.45;;;;;;;15.59;88.88;99899.63;21252878;27;20550;-72
2021/07/15 03:30:56;;;;;;;3.92;0.50;;;;;;;15.55;89.57;99893.63;21248051;27;20036;-71
2021/07/15 03:41:03;;;;;;;1.70;0.60;;;;;;;15.62;89.90;99889.81;21247525;27;20047;-71
2021/07/15 03:51:07;;;;;;;3.23;0.90;;;;;;;15.62;89.77;99925.91;21246247;27;20408;-72
2021/07/15 04:01:11;;;;;;;2.77;0.67;;;;;;;15.63;89.36;99912.66;21245318;27;20758;-71
2021/07/15 04:11:16;;;;;;;1.75;0.55;;;;;;;15.68;89.29;99916.88;21245703;27;20075;-72
2021/07/15 04:21:18;;;;;;;1.73;0.98;;;;;;;15.69;89.87;99910.69;21245060;27;20051;-72
2021/07/15 04:31:23;;;;;;;2.60;1.20;;;;;;;15.70;89.66;99925.59;21243167;27;20043;-71
2021/07/15 04:41:27;;;;;;;2.40;0.82;;;;;;;15.75;90.09;99926.22;21243512;27;20047;-71
2021/07/15 04:51:30;;;;;;;3.55;0.95;;;;;;;15.79;90.18;99927.81;21239795;27;20070;-71
2021/07/15 05:01:36;;;;;;;3.25;1.00;;;;;;;15.89;89.31;99942.31;21154607;27;20048;-72
2021/07/15 05:11:38;;;;;;;4.22;1.15;;;;;;;15.93;89.02;99953.59;21155337;28;20052;-71
2021/07/15 05:21:40;;;;;;;2.00;0.93;;;;;;;15.97;89.38;99949.91;21155476;28;20047;-72
2021/07/15 05:31:42;;;;;;;4.45;1.10;;;;;;;16.14;87.90;99979.03;21154093;27;20043;-71
2021/07/15 05:41:44;;;;;;;3.42;0.80;;;;;;;16.17;88.14;99982.41;21153238;28;20562;-71
2021/07/15 05:51:49;;;;;;;4.25;0.80;;;;;;;16.14;88.73;99998.41;21153050;28;20504;-71
2021/07/15 06:01:52;;;;;;;2.17;0.53;;;;;;;16.29;87.81;99995.97;21151110;27;20039;-70
2021/07/15 06:11:55;;;;;;;0.85;0.40;;;;;;;16.67;87.07;99992.41;21149923;28;20052;-70
2021/07/15 06:21:57;;;;;;;1.20;0.50;;;;;;;17.01;85.38;99984.66;21149524;28;20050;-71
2021/07/15 06:31:59;;;;;;;1.02;0.50;;;;;;;17.30;84.06;99983.25;21149932;27;20371;-71
2021/07/15 06:42:01;;;;;;;0.57;0.40;;;;;;;17.79;82.60;99975.47;21150307;28;20043;-70
2021/07/15 06:52:03;;;;;;;1.23;0.45;;;;;;;17.68;81.11;99991.88;21156061;27;20043;-70
2021/07/15 07:02:07;;;;;;;1.60;0.40;;;;;;;17.80;80.15;99982.47;21231208;27;20104;-70
2021/07/15 07:12:08;;;;;;;1.88;0.57;;;;;;;18.17;81.29;99984.88;21234884;28;20043;-70
2021/07/15 07:22:10;;;;;;;1.60;0.50;;;;;;;18.47;78.46;99981.50;21232823;28;20051;-70
2021/07/15 07:32:12;;;;;;;2.50;0.40;;;;;;;18.39;78.91;99994.31;21246061;27;20043;-71
2021/07/15 07:42:14;;;;;;;1.48;0.40;;;;;;;18.41;79.92;99995.09;21251745;27;20073;-71
2021/07/15 07:52:16;;;;;;;0.95;0.22;;;;;;;18.59;77.00;100009.13;21248823;27;20100;-70
2021/07/15 08:02:19;;;;;;;2.10;0.63;;;;;;;18.58;77.51;100018.03;21245467;27;20051;-69
2021/07/15 08:12:20;;;;;;;0.90;0.40;;;;;;;19.47;73.82;100020.03;21247557;27;20077;-70
2021/07/15 08:22:22;;;;;;;19.65;1.20;;;;;;;18.90;75.01;100034.84;21244818;27;20054;-70
2021/07/15 08:32:24;;;;;;;1.35;0.60;;;;;;;18.62;74.58;100051.41;21243904;27;20042;-69
2021/07/15 08:42:26;;;;;;;5.40;1.35;;;;;;;18.54;77.34;100045.66;21243886;27;20484;-69
2021/07/15 08:52:28;;;;;;;31.30;3.60;;;;;;;19.13;73.90;100053.00;21242311;27;20047;-70
2021/07/15 09:02:30;;;;;;;2.50;0.50;;;;;;;19.78;73.01;100046.63;21240865;27;20066;-69
2021/07/15 09:12:32;;;;;;;8.30;1.00;;;;;;;19.23;72.72;100063.94;21244019;27;20064;-70
2021/07/15 09:23:01;;;;;;;2.67;0.50;;;;;;;19.39;71.96;100063.91;21239524;27;20042;-70
2021/07/15 09:33:14;;;;;;;0.90;0.60;;;;;;;20.31;70.21;100071.75;21239177;27;20043;-71
2021/07/15 09:43:23;;;;;;;0.90;0.50;;;;;;;19.61;69.87;100083.00;21239454;27;20051;-71
2021/07/15 09:53:27;;;;;;;1.33;0.60;;;;;;;19.76;69.51;100080.41;21218594;27;20076;-71
2021/07/15 10:03:34;;;;;;;1.35;0.55;;;;;;;20.26;71.40;100085.34;21153360;28;20417;-71
2021/07/15 10:13:36;;;;;;;1.02;0.55;;;;;;;19.89;68.66;100094.69;21151475;28;20054;-70
2021/07/15 10:23:41;;;;;;;2.17;1.00;;;;;;;19.98;69.40;100087.03;21151968;28;20504;-70
2021/07/15 10:34:00;;;;;;;0.55;0.50;;;;;;;20.29;69.00;100087.81;21151587;28;20047;-71
2021/07/15 10:44:05;;;;;;;1.65;0.60;;;;;;;21.08;66.95;100079.34;21151441;28;20044;-70
2021/07/15 10:54:07;;;;;;;1.88;0.88;;;;;;;21.33;65.60;100105.28;21176310;28;20047;-70
2021/07/15 11:04:13;;;;;;;1.98;1.00;;;;;;;20.86;67.59;100094.97;21244639;27;20039;-71
2021/07/15 11:14:36;;;;;;;1.45;0.90;;;;;;;21.16;65.17;100093.00;21250817;27;20394;-71
2021/07/15 11:24:41;;;;;;;1.25;0.98;;;;;;;21.37;63.62;100092.63;21238148;27;20051;-70
2021/07/15 11:34:45;;;;;;;1.85;1.10;;;;;;;21.71;62.35;100097.44;21232885;27;20043;-71
2021/07/15 11:44:58;;;;;;;2.67;1.70;;;;;;;21.07;63.76;100104.25;21250481;27;20047;-71
2021/07/15 11:55:11;;;;;;;2.78;1.50;;;;;;;20.99;63.76;100114.56;21251194;27;20984;-69
2021/07/15 12:05:20;;;;;;;2.22;1.40;;;;;;;21.49;60.93;100116.63;21247098;27;20390;-69
2021/07/15 12:15:27;;;;;;;3.60;1.50;;;;;;;21.94;61.37;100127.00;21239397;27;20047;-68
2021/07/15 12:25:34;;;;;;;3.90;1.40;;;;;;;22.00;62.04;100116.78;21245387;27;20043;-69
2021/07/15 12:35:37;;;;;;;2.33;1.40;;;;;;;22.10;60.40;100117.03;21243346;27;20039;-68
2021/07/15 12:45:39;;;;;;;4.13;1.35;;;;;;;22.27;58.70;100114.06;21243981;27;20043;-68
2021/07/15 12:55:42;;;;;;;3.67;2.22;;;;;;;22.20;59.67;100111.94;21243818;27;20093;-69
2021/07/15 13:05:45;;;;;;;3.30;1.30;;;;;;;22.36;57.69;100111.72;21223389;27;20039;-69
2021/07/15 13:15:55;;;;;;;4.13;1.47;;;;;;;22.77;58.91;100115.03;21242119;27;20459;-69
2021/07/15 13:25:57;;;;;;;2.25;1.30;;;;;;;23.33;57.76;100100.38;21238825;27;20497;-69
2021/07/15 13:36:02;;;;;;;2.03;1.20;;;;;;;23.19;57.46;100110.28;21238909;27;20051;-69
2021/07/15 13:46:08;;;;;;;2.15;1.30;;;;;;;22.82;54.10;100113.84;21238706;27;20047;-69
2021/07/15 13:56:10;;;;;;;1.60;1.20;;;;;;;23.94;52.42;100119.91;21237888;27;20074;-69
2021/07/15 14:06:12;;;;;;;5.20;1.80;;;;;;;23.34;57.38;100120.81;21237758;27;20039;-69
2021/07/15 14:16:15;;;;;;;3.13;1.30;;;;;;;23.07;58.14;100124.50;21237756;27;20043;-69
2021/07/15 14:26:16;;;;;;;1.90;1.30;;;;;;;23.97;56.16;100120.53;21237069;28;20386;-69
2021/07/15 14:36:18;;;;;;;1.60;1.20;;;;;;;24.56;54.36;100108.88;21243187;27;20053;-69
2021/07/15 14:46:20;;;;;;;1.80;1.20;;;;;;;23.91;54.97;100114.78;21252256;27;20055;-70
2021/07/15 14:56:22;;;;;;;1.70;1.25;;;;;;;23.63;55.64;100114.16;21251425;27;20051;-70
2021/07/15 15:06:25;;;;;;;1.52;1.10;;;;;;;23.70;53.13;100104.72;21249729;27;20122;-70
2021/07/15 15:16:26;;;;;;;3.22;1.10;;;;;;;24.10;55.03;100107.06;21250186;27;20047;-70
2021/07/15 15:26:29;;;;;;;1.83;1.35;;;;;;;24.62;55.06;100104.84;21249785;27;20047;-70
2021/07/15 15:36:31;;;;;;;1.33;1.10;;;;;;;24.46;54.40;100099.84;21247931;27;20069;-70
2021/07/15 15:47:04;;;;;;;1.45;1.05;;;;;;;25.19;52.91;100095.84;21246977;27;20128;-70
2021/07/15 15:57:07;;;;;;;3.60;1.60;;;;;;;24.79;53.32;100097.19;21246651;27;20164;-71
2021/07/15 16:07:09;;;;;;;2.40;1.37;;;;;;;24.60;53.57;100102.31;21248658;27;20100;-70
2021/07/15 16:17:11;;;;;;;2.53;1.23;;;;;;;24.28;54.79;100116.34;21246722;27;20489;-70
2021/07/15 16:27:12;;;;;;;3.42;1.35;;;;;;;24.11;54.88;100132.84;21240560;27;20494;-70
2021/07/15 16:37:14;;;;;;;1.88;1.20;;;;;;;23.70;57.19;100144.81;21246787;27;20100;-70
2021/07/15 16:47:17;;;;;;;2.97;1.05;;;;;;;23.25;59.55;100146.38;21248118;27;20100;-70
2021/07/15 16:57:19;;;;;;;2.33;1.58;;;;;;;23.48;59.42;100156.25;21241600;27;20065;-70
2021/07/15 17:07:21;;;;;;;5.35;1.63;;;;;;;23.53;59.62;100154.09;21241637;27;20049;-70
2021/07/15 17:17:22;;;;;;;3.65;2.00;;;;;;;23.48;59.22;100161.59;21238167;27;20096;-70
2021/07/15 17:27:25;;;;;;;2.20;1.48;;;;;;;23.35;59.52;100150.06;21239506;27;20051;-70
2021/07/15 17:37:26;;;;;;;2.55;1.80;;;;;;;23.36;59.90;100150.94;21238640;27;20047;-70
2021/07/15 17:47:29;;;;;;;2.35;1.40;;;;;;;23.31;60.43;100159.28;21237977;27;20413;-70
2021/07/15 17:57:38;;;;;;;2.35;1.30;;;;;;;23.03;60.74;100181.75;21236555;27;20047;-69
2021/07/15 18:07:42;;;;;;;2.22;1.40;;;;;;;23.06;61.17;100188.72;21236910;27;20096;-69
2021/07/15 18:17:44;;;;;;;3.70;1.70;;;;;;;22.70;63.38;100212.50;21095503;27;20491;-69
2021/07/15 18:27:45;;;;;;;1.92;0.88;;;;;;;21.91;61.64;100225.84;20979800;28;20450;-70
2021/07/15 18:37:49;;;;;;;2.75;1.02;;;;;;;21.42;62.25;100207.72;20981806;28;20048;-71
2021/07/15 18:47:51;;;;;;;3.83;1.30;;;;;;;21.09;63.50;100235.47;20983598;28;20494;-70
2021/07/15 18:57:54;;;;;;;2.70;0.98;;;;;;;20.59;64.63;100234.06;20981895;28;20048;-70
2021/07/15 19:07:57;;;;;;;2.78;1.00;;;;;;;20.33;66.04;100245.38;20996287;28;20490;-71
2021/07/15 19:17:59;;;;;;;4.13;1.40;;;;;;;20.08;65.96;100267.22;20970736;28;20096;-70
2021/07/15 19:28:01;;;;;;;1.58;0.80;;;;;;;19.86;66.76;100272.88;20996064;28;20052;-70
2021/07/15 19:38:04;;;;;;;2.55;1.10;;;;;;;19.75;67.56;100308.03;20996367;28;20056;-70
2021/07/15 19:48:07;;;;;;;2.10;1.08;;;;;;;19.73;69.34;100326.69;20995669;28;20530;-71
2021/07/15 19:58:08;;;;;;;2.40;1.10;;;;;;;19.59;68.77;100339.81;20971769;28;20149;-71
2021/07/15 20:08:10;;;;;;;3.33;1.23;;;;;;;19.51;70.07;100334.09;20910124;28;20099;-71
2021/07/15 20:18:13;;;;;;;2.25;1.10;;;;;;;19.36;71.36;100338.41;20981136;28;20060;-70
2021/07/15 20:28:17;;;;;;;2.60;1.27;;;;;;;19.28;71.44;100348.59;20990379;28;20059;-69
2021/07/15 20:38:22;;;;;;;5.47;1.33;;;;;;;19.14;71.51;100362.56;20988885;28;20528;-69
2021/07/15 20:48:24;;;;;;;2.65;1.20;;;;;;;19.03;73.30;100356.13;20989480;28;20424;-70
2021/07/15 20:58:26;;;;;;;3.70;1.30;;;;;;;19.03;74.54;100362.28;20988151;28;20479;-72
2021/07/15 21:08:28;;;;;;;2.15;1.13;;;;;;;18.94;75.76;100379.50;20987402;28;20509;-70
2021/07/15 21:18:30;;;;;;;3.38;1.27;;;;;;;18.82;77.00;100393.38;20914502;28;20041;-70
2021/07/15 21:28:32;;;;;;;2.88;1.30;;;;;;;18.68;77.26;100407.34;20897400;28;20103;-71
2021/07/15 21:38:34;;;;;;;5.93;1.50;;;;;;;18.52;77.35;100414.28;20902825;28;20049;-71
2021/07/15 21:48:36;;;;;;;2.85;1.60;;;;;;;18.39;77.97;100421.09;20903571;28;20479;-70
2021/07/15 21:58:38;;;;;;;4.18;1.40;;;;;;;18.20;79.27;100431.72;20902547;28;20045;-71
2021/07/15 22:08:42;;;;;;;4.47;1.55;;;;;;;18.17;79.45;100437.19;20900236;28;20049;-70
2021/07/15 22:18:44;;;;;;;4.68;1.40;;;;;;;18.07;80.13;100422.66;20901764;28;20049;-71
2021/07/15 22:28:45;;;;;;;5.00;1.67;;;;;;;17.98;80.29;100439.81;20901418;28;20045;-70
2021/07/15 22:38:48;;;;;;;2.97;1.50;;;;;;;17.87;80.40;100437.66;20900558;28;20059;-70
2021/07/15 22:48:49;;;;;;;3.17;1.50;;;;;;;17.73;80.59;100431.25;20900745;28;20045;-72
2021/07/15 22:58:51;;;;;;;4.75;2.08;;;;;;;17.69;81.22;100431.38;20865557;22;20396;-73
2021/07/15 23:08:53;;;;;;;2.72;1.70;;;;;;;17.71;81.65;100431.28;20746609;28;20045;-72
2021/07/15 23:18:55;;;;;;;5.68;1.77;;;;;;;17.57;81.98;100434.53;20746504;28;20101;-72
2021/07/15 23:28:57;;;;;;;4.22;1.70;;;;;;;17.46;83.45;100428.88;20748191;28;20065;-72
2021/07/15 23:38:59;;;;;;;3.28;1.80;;;;;;;17.40;83.30;100437.09;20746378;28;20108;-74
2021/07/15 23:49:00;;;;;;;5.28;2.10;;;;;;;17.11;84.18;100420.66;20727975;28;20284;-72
2021/07/15 23:59:02;;;;;;;4.18;2.13;;;;;;;16.91;84.82;100412.69;20744957;28;20053;-72
